Terminal Aerodrome Forecast
Issued by NWS

Home | Current Version | Previous Version | Text Only | Print | Product List | Glossary On
Versions: 1 2 3 4 5 6 7 8 9 10 11 12 13 14 15 16 17 18 19 20 21 22 23 24 25
000
FTUS41 KPHI 270743 AAA
TAFMIV
TAF AMD
KMIV 270743Z 2708/2806 VRB03KT P6SM SCT002 OVC015
      TEMPO 2708/2710 2SM BR BKN002 OVC015
     FM271000 VRB03KT 3SM BR OVC003
     FM271400 14006KT P6SM BKN015
     FM271700 16008KT P6SM SCT035=

USA.gov is the U.S. government's official web portal to all federal, state and local government web resources and services.